Time,TemperatureF,DewpointF,PressureIn,WindDirection,WindDirectionDegrees,WindSpeedMPH,WindSpeedGustMPH,Humidity,HourlyPrecipIn,Conditions,Clouds,dailyrainin,SoftwareType,DateUTC
2013-08-10 00:00:00,49.8,43.2,29.69,WNW,292,0.0,0.0,78,0.00,,,-99.99,VWS V12.07,2013-08-10 05:00:00,
2013-08-10 00:10:00,49.6,43.4,29.70,WNW,292,0.0,0.0,79,0.00,,,-99.99,VWS V12.07,2013-08-10 05:10:00,
2013-08-10 00:15:00,49.6,43.4,29.70,WNW,292,0.0,0.0,79,0.00,,,-99.99,VWS V12.07,2013-08-10 05:15:00,
2013-08-10 00:20:00,49.2,43.0,29.70,WNW,292,0.0,0.0,79,0.00,,,-99.99,VWS V12.07,2013-08-10 05:20:00,
2013-08-10 00:25:00,49.2,43.3,29.70,WNW,292,0.0,0.0,80,0.00,,,-99.99,VWS V12.07,2013-08-10 05:25:00,
2013-08-10 00:30:00,49.1,43.2,29.70,WNW,292,0.0,0.0,80,0.00,,,-99.99,VWS V12.07,2013-08-10 05:30:00,
2013-08-10 00:35:00,48.9,43.0,29.70,WNW,292,0.0,0.0,80,0.00,,,-99.99,VWS V12.07,2013-08-10 05:35:00,
2013-08-10 00:40:00,48.9,43.0,29.70,WNW,292,0.0,0.0,80,0.00,,,-99.99,VWS V12.07,2013-08-10 05:40:00,
2013-08-10 00:45:00,48.7,42.8,29.70,WNW,292,0.0,0.0,80,0.00,,,-99.99,VWS V12.07,2013-08-10 05:45:00,
2013-08-10 00:50:00,48.7,42.8,29.70,WNW,292,0.0,0.0,80,0.00,,,-99.99,VWS V12.07,2013-08-10 05:50:00,
2013-08-10 00:55:00,48.7,42.8,29.70,WNW,292,0.0,0.0,80,0.00,,,-99.99,VWS V12.07,2013-08-10 05:55:00,
2013-08-10 01:00:00,48.5,43.0,29.70,WNW,292,0.0,0.0,81,0.00,,,-99.99,VWS V12.07,2013-08-10 06:00:00,
2013-08-10 01:05:00,48.5,43.0,29.70,WNW,292,0.0,0.0,81,0.00,,,-99.99,VWS V12.07,2013-08-10 06:05:00,
2013-08-10 01:10:00,48.5,43.0,29.70,WNW,292,0.0,0.0,81,0.00,,,-99.99,VWS V12.07,2013-08-10 06:10:00,
2013-08-10 01:15:00,48.3,42.8,29.70,WNW,292,0.0,0.0,81,0.00,,,-99.99,VWS V12.07,2013-08-10 06:15:00,
2013-08-10 01:20:00,48.3,42.8,29.70,WNW,292,0.0,0.0,81,0.00,,,-99.99,VWS V12.07,2013-08-10 06:20:00,
2013-08-10 01:25:00,48.3,42.8,29.70,WNW,292,0.0,0.0,81,0.00,,,-99.99,VWS V12.07,2013-08-10 06:25:00,
2013-08-10 01:30:00,48.3,42.8,29.70,WNW,292,0.0,0.0,81,0.00,,,-99.99,VWS V12.07,2013-08-10 06:30:00,
2013-08-10 01:35:00,48.3,42.8,29.70,WNW,292,0.0,0.0,81,0.00,,,-99.99,VWS V12.07,2013-08-10 06:35:00,
2013-08-10 01:40:00,48.3,42.8,29.70,WNW,292,0.0,0.0,81,0.00,,,-99.99,VWS V12.07,2013-08-10 06:40:00,
2013-08-10 01:45:00,48.3,42.8,29.71,WNW,292,0.0,0.0,81,0.00,,,-99.99,VWS V12.07,2013-08-10 06:45:00,
2013-08-10 01:50:00,48.3,43.1,29.71,WNW,292,0.0,0.0,82,0.00,,,-99.99,VWS V12.07,2013-08-10 06:50:00,
2013-08-10 01:55:00,48.3,43.1,29.71,WNW,292,0.0,0.0,82,0.00,,,-99.99,VWS V12.07,2013-08-10 06:55:00,
2013-08-10 02:00:00,48.3,43.1,29.71,WNW,292,0.0,0.0,82,0.00,,,-99.99,VWS V12.07,2013-08-10 07:00:00,
2013-08-10 02:05:00,48.3,43.1,29.71,WNW,292,0.0,0.0,82,0.00,,,-99.99,VWS V12.07,2013-08-10 07:05:00,
2013-08-10 02:10:00,48.2,43.0,29.71,WNW,292,0.0,0.0,82,0.00,,,-99.99,VWS V12.07,2013-08-10 07:10:00,
2013-08-10 02:15:00,48.2,43.0,29.71,WNW,292,0.0,0.0,82,0.00,,,-99.99,VWS V12.07,2013-08-10 07:15:00,
2013-08-10 02:20:00,48.2,43.0,29.71,WNW,292,0.0,0.0,82,0.00,,,-99.99,VWS V12.07,2013-08-10 07:20:00,
2013-08-10 02:25:00,48.0,42.8,29.71,WNW,292,0.0,0.0,82,0.00,,,-99.99,VWS V12.07,2013-08-10 07:25:00,
2013-08-10 02:30:00,48.0,42.8,29.71,WNW,292,0.0,0.0,82,0.00,,,-99.99,VWS V12.07,2013-08-10 07:30:00,
2013-08-10 02:35:00,48.0,42.8,29.71,WNW,292,0.0,0.0,82,0.00,,,-99.99,VWS V12.07,2013-08-10 07:35:00,
2013-08-10 02:40:00,47.8,42.9,29.71,WNW,292,0.0,0.0,83,0.00,,,-99.99,VWS V12.07,2013-08-10 07:40:00,
2013-08-10 02:45:00,47.8,42.9,29.71,WNW,292,0.0,0.0,83,0.00,,,-99.99,VWS V12.07,2013-08-10 07:45:00,
2013-08-10 02:50:00,47.8,42.9,29.71,WNW,292,0.0,0.0,83,0.00,,,-99.99,VWS V12.07,2013-08-10 07:50:00,
2013-08-10 02:55:00,47.6,42.7,29.71,WNW,292,0.0,0.0,83,0.00,,,-99.99,VWS V12.07,2013-08-10 07:55:00,
2013-08-10 03:00:00,47.4,42.5,29.71,WNW,292,0.0,0.0,83,0.00,,,-99.99,VWS V12.07,2013-08-10 08:00:00,
2013-08-10 03:05:00,47.4,42.5,29.71,WNW,292,0.0,0.0,83,0.00,,,-99.99,VWS V12.07,2013-08-10 08:05:00,
2013-08-10 03:10:00,47.3,42.4,29.71,WNW,292,0.0,0.0,83,0.00,,,-99.99,VWS V12.07,2013-08-10 08:10:00,
2013-08-10 03:15:00,47.3,42.4,29.72,WNW,292,0.0,0.0,83,0.00,,,-99.99,VWS V12.07,2013-08-10 08:15:00,
2013-08-10 03:20:00,47.3,42.4,29.72,WNW,292,0.0,0.0,83,0.00,,,-99.99,VWS V12.07,2013-08-10 08:20:00,
2013-08-10 03:25:00,47.1,42.2,29.72,WNW,292,0.0,0.0,83,0.00,,,-99.99,VWS V12.07,2013-08-10 08:25:00,
2013-08-10 03:30:00,47.1,42.2,29.72,WNW,292,0.0,0.0,83,0.00,,,-99.99,VWS V12.07,2013-08-10 08:30:00,
2013-08-10 03:35:00,47.1,42.2,29.72,WNW,292,0.0,0.0,83,0.00,,,-99.99,VWS V12.07,2013-08-10 08:35:00,
2013-08-10 03:40:00,47.1,42.2,29.72,WNW,292,0.0,0.0,83,0.00,,,-99.99,VWS V12.07,2013-08-10 08:40:00,
2013-08-10 03:45:00,46.9,42.0,29.72,WNW,292,0.0,0.0,83,0.00,,,-99.99,VWS V12.07,2013-08-10 08:45:00,
2013-08-10 03:50:00,46.9,42.0,29.72,WNW,292,0.0,0.0,83,0.00,,,-99.99,VWS V12.07,2013-08-10 08:50:00,
2013-08-10 03:55:00,46.9,42.3,29.72,WNW,292,0.0,0.0,84,0.00,,,-99.99,VWS V12.07,2013-08-10 08:55:00,
2013-08-10 04:00:00,46.7,42.1,29.72,WNW,292,0.0,0.0,84,0.00,,,-99.99,VWS V12.07,2013-08-10 09:00:00,
2013-08-10 04:05:00,46.7,42.1,29.72,WNW,292,0.0,0.0,84,0.00,,,-99.99,VWS V12.07,2013-08-10 09:05:00,
2013-08-10 04:10:00,46.5,41.9,29.72,WNW,292,0.0,0.0,84,0.00,,,-99.99,VWS V12.07,2013-08-10 09:10:00,
2013-08-10 04:15:00,46.5,41.9,29.73,WNW,292,0.0,0.0,84,0.00,,,-99.99,VWS V12.07,2013-08-10 09:15:00,
2013-08-10 04:20:00,46.5,41.9,29.73,WNW,292,0.0,0.0,84,0.00,,,-99.99,VWS V12.07,2013-08-10 09:20:00,
2013-08-10 04:25:00,46.4,41.8,29.73,WNW,292,0.0,0.0,84,0.00,,,-99.99,VWS V12.07,2013-08-10 09:25:00,
2013-08-10 04:30:00,46.2,41.6,29.73,WNW,292,0.0,0.0,84,0.00,,,-99.99,VWS V12.07,2013-08-10 09:30:00,
2013-08-10 04:35:00,46.2,41.6,29.73,WNW,292,0.0,0.0,84,0.00,,,-99.99,VWS V12.07,2013-08-10 09:35:00,
2013-08-10 04:40:00,46.2,41.6,29.73,WNW,292,0.0,0.0,84,0.00,,,-99.99,VWS V12.07,2013-08-10 09:40:00,
2013-08-10 04:45:00,46.2,41.6,29.73,WNW,292,0.0,0.0,84,0.00,,,-99.99,VWS V12.07,2013-08-10 09:45:00,
2013-08-10 04:50:00,46.2,41.6,29.73,WNW,292,0.0,0.0,84,0.00,,,-99.99,VWS V12.07,2013-08-10 09:50:00,
2013-08-10 04:55:00,46.2,41.6,29.73,WNW,292,0.0,0.0,84,0.00,,,-99.99,VWS V12.07,2013-08-10 09:55:00,
2013-08-10 05:00:00,46.2,42.0,29.73,WNW,292,0.0,0.0,85,0.00,,,-99.99,VWS V12.07,2013-08-10 10:00:00,
2013-08-10 05:05:00,46.2,42.0,29.74,WNW,292,0.0,0.0,85,0.00,,,-99.99,VWS V12.07,2013-08-10 10:05:00,
2013-08-10 05:10:00,46.2,42.0,29.74,WNW,292,0.0,0.0,85,0.00,,,-99.99,VWS V12.07,2013-08-10 10:10:00,
2013-08-10 05:15:00,46.4,42.1,29.74,WNW,292,0.0,0.0,85,0.00,,,-99.99,VWS V12.07,2013-08-10 10:15:00,
2013-08-10 05:20:00,46.4,42.1,29.73,WNW,292,0.0,0.0,85,0.00,,,-99.99,VWS V12.07,2013-08-10 10:20:00,
2013-08-10 05:25:00,46.4,42.1,29.73,WNW,292,0.0,0.0,85,0.00,,,-99.99,VWS V12.07,2013-08-10 10:25:00,
2013-08-10 05:30:00,46.4,42.1,29.74,WNW,292,0.0,0.0,85,0.00,,,-99.99,VWS V12.07,2013-08-10 10:30:00,
2013-08-10 05:35:00,46.2,42.0,29.73,WNW,292,0.0,0.0,85,0.00,,,-99.99,VWS V12.07,2013-08-10 10:35:00,
2013-08-10 05:40:00,46.2,42.0,29.73,WNW,292,0.0,0.0,85,0.00,,,-99.99,VWS V12.07,2013-08-10 10:40:00,
2013-08-10 05:45:00,46.2,42.0,29.74,WNW,292,0.0,0.0,85,0.00,,,-99.99,VWS V12.07,2013-08-10 10:45:00,
2013-08-10 05:50:00,46.2,42.0,29.74,WNW,292,0.0,0.0,85,0.00,,,-99.99,VWS V12.07,2013-08-10 10:50:00,
2013-08-10 05:55:00,46.2,42.0,29.74,WNW,292,0.0,0.0,85,0.00,,,-99.99,VWS V12.07,2013-08-10 10:55:00,
2013-08-10 06:00:00,46.2,42.0,29.74,WNW,292,0.0,0.0,85,0.00,,,-99.99,VWS V12.07,2013-08-10 11:00:00,
2013-08-10 06:05:00,46.0,41.8,29.74,WNW,292,0.0,0.0,85,0.00,,,-99.99,VWS V12.07,2013-08-10 11:05:00,
2013-08-10 06:10:00,46.0,41.8,29.74,WNW,292,0.0,0.0,85,0.00,,,-99.99,VWS V12.07,2013-08-10 11:10:00,
2013-08-10 06:15:00,46.0,42.0,29.74,WNW,292,0.0,0.0,86,0.00,,,-99.99,VWS V12.07,2013-08-10 11:15:00,
2013-08-10 06:20:00,46.0,42.0,29.74,WNW,292,0.0,0.0,86,0.00,,,-99.99,VWS V12.07,2013-08-10 11:20:00,
2013-08-10 06:25:00,46.0,42.0,29.74,WNW,292,0.0,0.0,86,0.00,,,-99.99,VWS V12.07,2013-08-10 11:25:00,
2013-08-10 06:30:00,46.0,42.0,29.74,WNW,292,0.0,0.0,86,0.00,,,-99.99,VWS V12.07,2013-08-10 11:30:00,
2013-08-10 06:35:00,46.0,42.0,29.75,WNW,292,0.0,0.0,86,0.00,,,-99.99,VWS V12.07,2013-08-10 11:35:00,
2013-08-10 06:40:00,46.2,42.2,29.75,WNW,292,0.0,0.0,86,0.00,,,-99.99,VWS V12.07,2013-08-10 11:40:00,
2013-08-10 06:45:00,46.5,42.5,29.74,WNW,292,0.0,0.0,86,0.00,,,-99.99,VWS V12.07,2013-08-10 11:45:00,
2013-08-10 06:50:00,46.9,42.9,29.74,WNW,292,0.0,0.0,86,0.00,,,-99.99,VWS V12.07,2013-08-10 11:50:00,
2013-08-10 06:55:00,47.3,43.3,29.75,WNW,292,0.0,0.0,86,0.00,,,-99.99,VWS V12.07,2013-08-10 11:55:00,
2013-08-10 07:00:00,47.8,44.1,29.75,WNW,292,0.0,0.0,87,0.00,,,-99.99,VWS V12.07,2013-08-10 12:00:00,
2013-08-10 07:10:00,48.7,45.0,29.75,WNW,292,0.0,0.0,87,0.00,,,-99.99,VWS V12.07,2013-08-10 12:10:00,
2013-08-10 07:15:00,49.1,45.4,29.75,WNW,292,0.0,0.0,87,0.00,,,-99.99,VWS V12.07,2013-08-10 12:15:00,
2013-08-10 07:20:00,49.2,45.5,29.75,WNW,292,0.0,0.0,87,0.00,,,-99.99,VWS V12.07,2013-08-10 12:20:00,
2013-08-10 07:25:00,49.8,46.1,29.75,WNW,292,0.0,0.0,87,0.00,,,-99.99,VWS V12.07,2013-08-10 12:25:00,
2013-08-10 07:30:00,50.1,46.4,29.75,WNW,292,0.0,0.0,87,0.00,,,-99.99,VWS V12.07,2013-08-10 12:30:00,
2013-08-10 07:35:00,50.3,46.6,29.75,WNW,292,0.0,0.0,87,0.00,,,-99.99,VWS V12.07,2013-08-10 12:35:00,
2013-08-10 07:40:00,50.7,47.0,29.75,WNW,292,0.0,0.0,87,0.00,,,-99.99,VWS V12.07,2013-08-10 12:40:00,
2013-08-10 07:45:00,51.0,47.3,29.75,WNW,292,0.0,0.0,87,0.00,,,-99.99,VWS V12.07,2013-08-10 12:45:00,
2013-08-10 07:50:00,51.2,47.8,29.75,WNW,292,0.0,0.0,88,0.00,,,-99.99,VWS V12.07,2013-08-10 12:50:00,
2013-08-10 07:55:00,51.6,48.2,29.75,WNW,292,0.0,0.0,88,0.00,,,-99.99,VWS V12.07,2013-08-10 12:55:00,
2013-08-10 08:00:00,51.9,48.5,29.75,WNW,292,0.0,0.0,88,0.00,,,-99.99,VWS V12.07,2013-08-10 13:00:00,
2013-08-10 08:05:00,52.3,48.9,29.75,WNW,292,0.0,0.0,88,0.00,,,-99.99,VWS V12.07,2013-08-10 13:05:00,
2013-08-10 08:10:00,52.7,49.2,29.75,WNW,292,0.0,0.0,88,0.00,,,-99.99,VWS V12.07,2013-08-10 13:10:00,
2013-08-10 08:15:00,53.0,49.5,29.75,WNW,292,0.0,0.0,88,0.00,,,-99.99,VWS V12.07,2013-08-10 13:15:00,
2013-08-10 08:20:00,53.4,49.9,29.75,WNW,292,0.0,0.0,88,0.00,,,-99.99,VWS V12.07,2013-08-10 13:20:00,
2013-08-10 08:25:00,53.9,50.4,29.75,WNW,292,0.0,0.0,88,0.00,,,-99.99,VWS V12.07,2013-08-10 13:25:00,
2013-08-10 08:30:00,54.3,50.8,29.76,WNW,292,0.0,0.0,88,0.00,,,-99.99,VWS V12.07,2013-08-10 13:30:00,
2013-08-10 08:35:00,54.6,51.1,29.75,WNW,292,0.0,0.0,88,0.00,,,-99.99,VWS V12.07,2013-08-10 13:35:00,
2013-08-10 08:40:00,55.2,51.7,29.75,WNW,292,0.0,0.0,88,0.00,,,-99.99,VWS V12.07,2013-08-10 13:40:00,
2013-08-10 08:45:00,55.9,52.4,29.75,NW,315,0.0,0.0,88,0.00,,,-99.99,VWS V12.07,2013-08-10 13:45:00,
2013-08-10 08:50:00,56.3,52.8,29.75,NW,315,0.0,0.0,88,0.00,,,-99.99,VWS V12.07,2013-08-10 13:50:00,
2013-08-10 08:55:00,56.8,53.3,29.75,NW,315,0.0,0.0,88,0.00,,,-99.99,VWS V12.07,2013-08-10 13:55:00,
2013-08-10 09:00:00,57.0,53.5,29.75,NW,315,0.0,0.0,88,0.00,,,-99.99,VWS V12.07,2013-08-10 14:00:00,
2013-08-10 09:05:00,57.3,53.8,29.75,NW,315,0.0,0.0,88,0.00,,,-99.99,VWS V12.07,2013-08-10 14:05:00,
2013-08-10 09:10:00,57.9,54.1,29.75,NW,315,0.0,0.0,87,0.00,,,-99.99,VWS V12.07,2013-08-10 14:10:00,
2013-08-10 09:15:00,58.2,54.4,29.75,NW,315,0.0,0.0,87,0.00,,,-99.99,VWS V12.07,2013-08-10 14:15:00,
2013-08-10 09:20:00,58.6,54.4,29.75,NW,315,0.0,0.0,86,0.00,,,-99.99,VWS V12.07,2013-08-10 14:20:00,
2013-08-10 09:25:00,58.8,54.6,29.75,NW,315,0.0,0.0,86,0.00,,,-99.99,VWS V12.07,2013-08-10 14:25:00,
2013-08-10 09:30:00,59.1,54.6,29.75,NW,315,0.0,0.0,85,0.00,,,-99.99,VWS V12.07,2013-08-10 14:30:00,
2013-08-10 09:35:00,59.5,54.7,29.75,NW,315,0.0,0.0,84,0.00,,,-99.99,VWS V12.07,2013-08-10 14:35:00,
2013-08-10 09:40:00,60.0,54.8,29.75,North,0,0.0,0.0,83,0.00,,,-99.99,VWS V12.07,2013-08-10 14:40:00,
2013-08-10 09:45:00,60.2,54.7,29.75,NNW,338,0.0,0.0,82,0.00,,,-99.99,VWS V12.07,2013-08-10 14:45:00,
2013-08-10 09:50:00,60.4,54.5,29.75,WNW,292,0.0,0.0,81,0.00,,,-99.99,VWS V12.07,2013-08-10 14:50:00,
2013-08-10 09:55:00,60.8,54.6,29.75,WNW,292,0.0,0.0,80,0.00,,,-99.99,VWS V12.07,2013-08-10 14:55:00,
2013-08-10 10:00:00,60.9,54.3,29.76,WNW,292,0.0,0.0,79,0.00,,,-99.99,VWS V12.07,2013-08-10 15:00:00,
2013-08-10 10:05:00,61.3,54.7,29.75,SSW,202,0.4,0.4,79,0.00,,,-99.99,VWS V12.07,2013-08-10 15:05:00,
2013-08-10 10:15:00,62.0,54.7,29.76,SW,225,0.0,1.7,77,0.00,,,-99.99,VWS V12.07,2013-08-10 15:15:00,
2013-08-10 10:20:00,62.4,54.8,29.76,WNW,292,1.1,1.1,76,0.00,,,-99.99,VWS V12.07,2013-08-10 15:20:00,
2013-08-10 10:25:00,62.6,54.6,29.76,WNW,292,0.0,1.1,75,0.00,,,-99.99,VWS V12.07,2013-08-10 15:25:00,
2013-08-10 10:30:00,62.9,54.9,29.76,WNW,292,0.0,1.1,75,0.00,,,-99.99,VWS V12.07,2013-08-10 15:30:00,
2013-08-10 10:35:00,63.3,55.2,29.75,WSW,248,2.0,2.0,75,0.00,,,-99.99,VWS V12.07,2013-08-10 15:35:00,
2013-08-10 10:40:00,63.6,54.8,29.75,SW,225,0.0,2.0,73,0.00,,,-99.99,VWS V12.07,2013-08-10 15:40:00,
2013-08-10 10:45:00,63.6,54.8,29.76,SW,225,2.0,2.0,73,0.00,,,-99.99,VWS V12.07,2013-08-10 15:45:00,
2013-08-10 10:50:00,64.0,55.2,29.76,SSW,202,2.0,2.0,73,0.00,,,-99.99,VWS V12.07,2013-08-10 15:50:00,
2013-08-10 10:55:00,64.2,55.0,29.75,SSW,202,0.0,2.2,72,0.00,,,-99.99,VWS V12.07,2013-08-10 15:55:00,
2013-08-10 11:00:00,64.5,55.3,29.76,SSW,202,4.2,4.2,72,0.00,,,-99.99,VWS V12.07,2013-08-10 16:00:00,
2013-08-10 11:05:00,64.7,55.1,29.76,SW,225,1.7,1.7,71,0.00,,,-99.99,VWS V12.07,2013-08-10 16:05:00,
2013-08-10 11:10:00,64.7,54.7,29.75,SW,225,0.0,1.7,70,0.00,,,-99.99,VWS V12.07,2013-08-10 16:10:00,
2013-08-10 11:15:00,64.7,54.7,29.75,SW,225,0.0,1.7,70,0.00,,,-99.99,VWS V12.07,2013-08-10 16:15:00,
2013-08-10 11:20:00,64.7,54.7,29.76,SW,225,0.0,5.1,70,0.00,,,-99.99,VWS V12.07,2013-08-10 16:20:00,
2013-08-10 11:25:00,64.9,54.9,29.76,SW,225,0.0,5.1,70,0.00,,,-99.99,VWS V12.07,2013-08-10 16:25:00,
2013-08-10 11:30:00,65.1,55.1,29.76,SW,225,5.3,5.3,70,0.00,,,-99.99,VWS V12.07,2013-08-10 16:30:00,
2013-08-10 11:35:00,65.1,54.7,29.76,SW,225,0.8,2.6,69,0.00,,,-99.99,VWS V12.07,2013-08-10 16:35:00,
2013-08-10 11:40:00,65.1,54.7,29.76,SW,225,0.0,2.6,69,0.00,,,-99.99,VWS V12.07,2013-08-10 16:40:00,
2013-08-10 11:45:00,65.1,54.7,29.76,SW,225,0.0,2.6,69,0.00,,,-99.99,VWS V12.07,2013-08-10 16:45:00,
2013-08-10 11:50:00,65.1,54.7,29.76,SW,225,0.0,2.0,69,0.00,,,-99.99,VWS V12.07,2013-08-10 16:50:00,
2013-08-10 11:55:00,65.1,54.7,29.75,SW,225,0.0,2.0,69,0.00,,,-99.99,VWS V12.07,2013-08-10 16:55:00,
2013-08-10 12:00:00,65.3,54.9,29.76,SW,225,0.0,2.0,69,0.00,,,-99.99,VWS V12.07,2013-08-10 17:00:00,
2013-08-10 12:05:00,65.4,54.6,29.75,SW,225,0.0,2.4,68,0.00,,,-99.99,VWS V12.07,2013-08-10 17:05:00,
2013-08-10 12:10:00,65.8,55.0,29.75,SW,225,0.0,2.4,68,0.00,,,-99.99,VWS V12.07,2013-08-10 17:10:00,
2013-08-10 12:15:00,66.0,54.7,29.75,SW,225,0.0,2.4,67,0.00,,,-99.99,VWS V12.07,2013-08-10 17:15:00,
2013-08-10 12:20:00,66.0,54.7,29.75,SW,225,0.0,2.0,67,0.00,,,-99.99,VWS V12.07,2013-08-10 17:20:00,
2013-08-10 12:25:00,66.2,54.5,29.76,SW,225,0.0,2.0,66,0.00,,,-99.99,VWS V12.07,2013-08-10 17:25:00,
2013-08-10 12:30:00,66.3,54.6,29.76,North,0,0.0,2.0,66,0.00,,,-99.99,VWS V12.07,2013-08-10 17:30:00,
2013-08-10 12:35:00,66.3,54.2,29.76,NNE,22,0.0,0.0,65,0.00,,,-99.99,VWS V12.07,2013-08-10 17:35:00,
2013-08-10 12:40:00,66.5,54.0,29.76,NNE,22,0.0,0.0,64,0.00,,,-99.99,VWS V12.07,2013-08-10 17:40:00,
2013-08-10 12:45:00,66.5,54.0,29.75,NNE,22,0.0,0.0,64,0.00,,,-99.99,VWS V12.07,2013-08-10 17:45:00,
2013-08-10 12:50:00,66.5,54.0,29.75,NNE,22,0.0,0.0,64,0.00,,,-99.99,VWS V12.07,2013-08-10 17:50:00,
2013-08-10 12:55:00,66.7,54.6,29.75,NNE,22,0.0,0.0,65,0.00,,,-99.99,VWS V12.07,2013-08-10 17:55:00,
2013-08-10 13:00:00,66.9,54.3,29.75,WNW,292,0.0,2.0,64,0.00,,,-99.99,VWS V12.07,2013-08-10 18:00:00,
2013-08-10 13:05:00,66.7,54.2,29.75,North,0,0.0,0.0,64,0.00,,,-99.99,VWS V12.07,2013-08-10 18:05:00,
2013-08-10 13:10:00,66.7,54.2,29.75,North,0,0.0,0.6,64,0.00,,,-99.99,VWS V12.07,2013-08-10 18:10:00,
2013-08-10 13:15:00,66.5,54.0,29.75,North,0,0.0,0.6,64,0.00,,,-99.99,VWS V12.07,2013-08-10 18:15:00,
2013-08-10 13:20:00,66.3,53.3,29.75,North,0,0.0,0.6,63,0.00,,,-99.99,VWS V12.07,2013-08-10 18:20:00,
2013-08-10 13:25:00,66.3,53.3,29.75,North,0,0.0,0.6,63,0.00,,,-99.99,VWS V12.07,2013-08-10 18:25:00,
2013-08-10 13:30:00,66.3,53.8,29.75,North,0,0.0,0.6,64,0.00,,,-99.99,VWS V12.07,2013-08-10 18:30:00,
2013-08-10 13:35:00,66.5,54.0,29.75,North,0,0.0,0.0,64,0.00,,,-99.99,VWS V12.07,2013-08-10 18:35:00,
2013-08-10 13:40:00,66.7,53.7,29.75,North,0,0.0,0.0,63,0.00,,,-99.99,VWS V12.07,2013-08-10 18:40:00,
2013-08-10 13:45:00,66.9,53.9,29.75,NW,315,0.0,0.0,63,0.00,,,-99.99,VWS V12.07,2013-08-10 18:45:00,
2013-08-10 13:50:00,67.1,54.5,29.75,SSW,202,2.2,2.2,64,0.00,,,-99.99,VWS V12.07,2013-08-10 18:50:00,
2013-08-10 14:00:00,67.1,54.1,29.76,NNE,22,0.0,3.8,63,0.00,,,-99.99,VWS V12.07,2013-08-10 19:00:00,
2013-08-10 14:05:00,67.1,54.1,29.76,NE,45,0.0,2.2,63,0.00,,,-99.99,VWS V12.07,2013-08-10 19:05:00,
2013-08-10 14:10:00,67.1,53.7,29.75,NNE,22,0.0,3.1,62,0.00,,,-99.99,VWS V12.07,2013-08-10 19:10:00,
2013-08-10 14:15:00,67.1,53.7,29.75,NNE,22,0.0,3.1,62,0.00,,,-99.99,VWS V12.07,2013-08-10 19:15:00,
2013-08-10 14:20:00,66.9,53.5,29.75,NW,315,0.0,0.0,62,0.00,,,-99.99,VWS V12.07,2013-08-10 19:20:00,
2013-08-10 14:25:00,66.7,53.3,29.76,NW,315,0.0,0.0,62,0.00,,,-99.99,VWS V12.07,2013-08-10 19:25:00,
2013-08-10 14:30:00,66.7,53.3,29.76,NW,315,0.0,1.7,62,0.00,,,-99.99,VWS V12.07,2013-08-10 19:30:00,
2013-08-10 14:35:00,66.7,53.3,29.75,NW,315,0.0,0.0,62,0.00,,,-99.99,VWS V12.07,2013-08-10 19:35:00,
2013-08-10 14:40:00,66.5,53.5,29.76,NNW,338,0.0,0.6,63,0.00,,,-99.99,VWS V12.07,2013-08-10 19:40:00,
2013-08-10 14:45:00,66.3,53.3,29.76,NNW,338,0.0,0.6,63,0.00,,,-99.99,VWS V12.07,2013-08-10 19:45:00,
2013-08-10 14:55:00,66.3,53.3,29.75,NNW,338,0.0,0.8,63,0.00,,,-99.99,VWS V12.07,2013-08-10 19:55:00,
2013-08-10 15:00:00,66.3,53.3,29.75,NNW,338,0.0,0.8,63,0.00,,,-99.99,VWS V12.07,2013-08-10 20:00:00,
2013-08-10 15:05:00,66.5,53.5,29.75,NNE,22,2.4,2.6,63,0.00,,,-99.99,VWS V12.07,2013-08-10 20:05:00,
2013-08-10 15:10:00,66.3,53.3,29.76,WSW,248,0.0,2.6,63,0.00,,,-99.99,VWS V12.07,2013-08-10 20:10:00,
2013-08-10 15:15:00,66.3,53.3,29.75,West,270,0.0,2.6,63,0.00,,,-99.99,VWS V12.07,2013-08-10 20:15:00,
2013-08-10 15:20:00,66.5,53.5,29.75,North,0,0.0,4.0,63,0.00,,,-99.99,VWS V12.07,2013-08-10 20:20:00,
2013-08-10 15:25:00,66.3,53.3,29.75,NNW,338,0.0,4.0,63,0.00,,,-99.99,VWS V12.07,2013-08-10 20:25:00,
2013-08-10 15:30:00,66.2,53.2,29.75,NNW,338,0.0,4.0,63,0.00,,,-99.99,VWS V12.07,2013-08-10 20:30:00,
2013-08-10 15:35:00,66.0,53.1,29.75,NNE,22,2.2,2.2,63,0.00,,,-99.99,VWS V12.07,2013-08-10 20:35:00,
2013-08-10 15:40:00,66.0,53.1,29.75,SW,225,0.0,2.2,63,0.00,,,-99.99,VWS V12.07,2013-08-10 20:40:00,
2013-08-10 15:45:00,66.0,53.1,29.74,SW,225,0.0,2.2,63,0.00,,,-99.99,VWS V12.07,2013-08-10 20:45:00,
2013-08-10 15:50:00,66.0,53.1,29.75,SW,225,0.0,2.4,63,0.00,,,-99.99,VWS V12.07,2013-08-10 20:50:00,
2013-08-10 15:55:00,66.3,53.3,29.75,NE,45,0.0,2.4,63,0.00,,,-99.99,VWS V12.07,2013-08-10 20:55:00,
2013-08-10 16:00:00,66.5,53.5,29.75,NE,45,0.0,2.4,63,0.00,,,-99.99,VWS V12.07,2013-08-10 21:00:00,
2013-08-10 16:05:00,66.5,53.1,29.74,NE,45,0.0,0.0,62,0.00,,,-99.99,VWS V12.07,2013-08-10 21:05:00,
2013-08-10 16:10:00,66.7,53.3,29.74,SSW,202,0.0,2.2,62,0.00,,,-99.99,VWS V12.07,2013-08-10 21:10:00,
2013-08-10 16:20:00,66.9,53.5,29.74,SSW,202,0.0,0.0,62,0.00,,,-99.99,VWS V12.07,2013-08-10 21:20:00,
2013-08-10 16:25:00,66.9,53.5,29.74,SSW,202,0.0,0.0,62,0.00,,,-99.99,VWS V12.07,2013-08-10 21:25:00,
2013-08-10 16:30:00,67.1,54.1,29.74,SSW,202,0.0,0.0,63,0.00,,,-99.99,VWS V12.07,2013-08-10 21:30:00,
2013-08-10 16:35:00,67.1,54.1,29.74,SSW,202,0.0,0.0,63,0.00,,,-99.99,VWS V12.07,2013-08-10 21:35:00,
2013-08-10 16:40:00,67.1,54.1,29.73,West,270,3.3,3.3,63,0.00,,,-99.99,VWS V12.07,2013-08-10 21:40:00,
2013-08-10 16:45:00,67.2,54.2,29.73,NE,45,0.0,3.3,63,0.00,,,-99.99,VWS V12.07,2013-08-10 21:45:00,
2013-08-10 16:50:00,67.6,54.1,29.73,NNW,338,0.0,0.0,62,0.00,,,-99.99,VWS V12.07,2013-08-10 21:50:00,
2013-08-10 16:55:00,68.0,54.5,29.73,NW,315,0.0,0.6,62,0.00,,,-99.99,VWS V12.07,2013-08-10 21:55:00,
2013-08-10 17:00:00,68.3,54.8,29.73,NW,315,0.8,0.8,62,0.00,,,-99.99,VWS V12.07,2013-08-10 22:00:00,
2013-08-10 17:05:00,68.7,55.2,29.73,NW,315,0.0,0.0,62,0.00,,,-99.99,VWS V12.07,2013-08-10 22:05:00,
2013-08-10 17:10:00,69.0,55.5,29.73,NW,315,0.0,0.0,62,0.00,,,-99.99,VWS V12.07,2013-08-10 22:10:00,
2013-08-10 17:15:00,69.0,55.0,29.73,North,0,0.0,0.0,61,0.00,,,-99.99,VWS V12.07,2013-08-10 22:15:00,
2013-08-10 17:25:00,68.5,54.5,29.73,NNE,22,0.0,2.9,61,0.00,,,-99.99,VWS V12.07,2013-08-10 22:25:00,
2013-08-10 17:30:00,68.3,54.8,29.73,NE,45,0.0,2.9,62,0.00,,,-99.99,VWS V12.07,2013-08-10 22:30:00,
2013-08-10 17:35:00,68.7,55.2,29.73,West,270,0.0,1.3,62,0.00,,,-99.99,VWS V12.07,2013-08-10 22:35:00,
2013-08-10 17:40:00,69.0,55.0,29.73,SSW,202,2.4,2.6,61,0.00,,,-99.99,VWS V12.07,2013-08-10 22:40:00,
2013-08-10 17:45:00,69.6,55.6,29.73,SSW,202,0.0,2.6,61,0.00,,,-99.99,VWS V12.07,2013-08-10 22:45:00,
2013-08-10 17:50:00,70.1,55.6,29.73,SSW,202,0.0,0.0,60,0.00,,,-99.99,VWS V12.07,2013-08-10 22:50:00,
2013-08-10 17:55:00,70.3,55.3,29.73,SSW,202,0.0,0.0,59,0.00,,,-99.99,VWS V12.07,2013-08-10 22:55:00,
2013-08-10 18:00:00,69.9,54.9,29.72,SSW,202,0.0,0.0,59,0.00,,,-99.99,VWS V12.07,2013-08-10 23:00:00,
2013-08-10 18:05:00,69.8,54.8,29.72,SSW,202,0.0,0.0,59,0.00,,,-99.99,VWS V12.07,2013-08-10 23:05:00,
2013-08-10 18:10:00,69.4,54.5,29.72,SSW,202,0.0,0.0,59,0.00,,,-99.99,VWS V12.07,2013-08-10 23:10:00,
2013-08-10 18:15:00,69.0,54.1,29.73,SSW,202,0.0,0.0,59,0.00,,,-99.99,VWS V12.07,2013-08-10 23:15:00,
2013-08-10 18:20:00,68.5,54.1,29.73,SSW,202,0.0,0.0,60,0.00,,,-99.99,VWS V12.07,2013-08-10 23:20:00,
2013-08-10 18:25:00,67.8,53.4,29.73,SSW,202,0.0,0.0,60,0.00,,,-99.99,VWS V12.07,2013-08-10 23:25:00,
2013-08-10 18:30:00,67.6,53.7,29.72,SSW,202,0.0,0.0,61,0.00,,,-99.99,VWS V12.07,2013-08-10 23:30:00,
2013-08-10 18:35:00,66.9,53.0,29.72,SSW,202,0.0,0.0,61,0.00,,,-99.99,VWS V12.07,2013-08-10 23:35:00,
2013-08-10 18:40:00,66.7,53.3,29.72,SSW,202,0.0,0.0,62,0.00,,,-99.99,VWS V12.07,2013-08-10 23:40:00,
2013-08-10 18:45:00,66.7,53.7,29.72,SSW,202,0.0,0.0,63,0.00,,,-99.99,VWS V12.07,2013-08-10 23:45:00,
2013-08-10 18:50:00,67.1,54.1,29.72,SSW,202,0.0,0.0,63,0.00,,,-99.99,VWS V12.07,2013-08-10 23:50:00,
2013-08-10 18:55:00,67.4,54.4,29.72,SSW,202,0.0,0.0,63,0.00,,,-99.99,VWS V12.07,2013-08-10 23:55:00,
2013-08-10 19:00:00,67.8,54.8,29.72,SSW,202,0.0,0.0,63,0.00,,,-99.99,VWS V12.07,2013-08-11 00:00:00,
2013-08-10 19:05:00,67.8,54.8,29.72,SSW,202,0.0,0.0,63,0.00,,,-99.99,VWS V12.07,2013-08-11 00:05:00,
2013-08-10 19:10:00,68.1,55.0,29.72,SSW,202,0.0,0.0,63,0.00,,,-99.99,VWS V12.07,2013-08-11 00:10:00,
2013-08-10 19:15:00,67.8,54.8,29.72,SSW,202,0.0,0.0,63,0.00,,,-99.99,VWS V12.07,2013-08-11 00:15:00,
2013-08-10 19:20:00,67.6,54.6,29.72,SSW,202,0.0,0.0,63,0.00,,,-99.99,VWS V12.07,2013-08-11 00:20:00,
2013-08-10 19:25:00,66.9,53.9,29.72,SSW,202,0.0,0.0,63,0.00,,,-99.99,VWS V12.07,2013-08-11 00:25:00,
2013-08-10 19:30:00,66.3,53.3,29.72,SSW,202,0.0,0.0,63,0.00,,,-99.99,VWS V12.07,2013-08-11 00:30:00,
2013-08-10 19:35:00,65.4,52.9,29.72,SSW,202,0.0,0.0,64,0.00,,,-99.99,VWS V12.07,2013-08-11 00:35:00,
2013-08-10 19:40:00,64.9,52.9,29.71,SSW,202,0.0,0.0,65,0.00,,,-99.99,VWS V12.07,2013-08-11 00:40:00,
2013-08-10 19:45:00,64.2,52.6,29.71,SSW,202,0.0,0.0,66,0.00,,,-99.99,VWS V12.07,2013-08-11 00:45:00,
2013-08-10 19:50:00,63.5,52.0,29.71,SSW,202,0.0,0.0,66,0.00,,,-99.99,VWS V12.07,2013-08-11 00:50:00,
2013-08-10 19:55:00,62.9,51.8,29.71,SSW,202,0.0,0.0,67,0.00,,,-99.99,VWS V12.07,2013-08-11 00:55:00,
2013-08-10 20:00:00,62.4,51.7,29.72,SSW,202,0.0,0.0,68,0.00,,,-99.99,VWS V12.07,2013-08-11 01:00:00,
2013-08-10 20:05:00,61.8,51.5,29.72,SSW,202,0.0,0.0,69,0.00,,,-99.99,VWS V12.07,2013-08-11 01:05:00,
2013-08-10 20:10:00,61.3,51.1,29.71,SSW,202,0.0,0.0,69,0.00,,,-99.99,VWS V12.07,2013-08-11 01:10:00,
2013-08-10 20:15:00,60.9,51.1,29.72,SSW,202,0.0,0.0,70,0.00,,,-99.99,VWS V12.07,2013-08-11 01:15:00,
2013-08-10 20:20:00,60.6,50.8,29.72,SSW,202,0.0,0.0,70,0.00,,,-99.99,VWS V12.07,2013-08-11 01:20:00,
2013-08-10 20:25:00,59.9,50.5,29.71,SSW,202,0.0,0.0,71,0.00,,,-99.99,VWS V12.07,2013-08-11 01:25:00,
2013-08-10 20:30:00,59.5,50.5,29.71,SSW,202,0.0,0.0,72,0.00,,,-99.99,VWS V12.07,2013-08-11 01:30:00,
2013-08-10 20:35:00,58.8,49.8,29.71,SSW,202,0.0,0.0,72,0.00,,,-99.99,VWS V12.07,2013-08-11 01:35:00,
2013-08-10 20:45:00,58.2,49.6,29.72,SSW,202,0.0,0.0,73,0.00,,,-99.99,VWS V12.07,2013-08-11 01:45:00,
2013-08-10 20:50:00,57.7,49.5,29.72,SSW,202,0.0,0.0,74,0.00,,,-99.99,VWS V12.07,2013-08-11 01:50:00,
2013-08-10 20:55:00,57.3,49.1,29.72,SSW,202,0.0,0.0,74,0.00,,,-99.99,VWS V12.07,2013-08-11 01:55:00,
2013-08-10 21:00:00,57.0,48.8,29.72,SSW,202,0.0,0.0,74,0.00,,,-99.99,VWS V12.07,2013-08-11 02:00:00,
2013-08-10 21:05:00,56.8,49.0,29.72,SSW,202,0.0,0.0,75,0.00,,,-99.99,VWS V12.07,2013-08-11 02:05:00,
2013-08-10 21:10:00,56.4,48.6,29.72,SSW,202,0.0,0.0,75,0.00,,,-99.99,VWS V12.07,2013-08-11 02:10:00,
2013-08-10 21:15:00,56.1,48.3,29.72,SSW,202,0.0,0.0,75,0.00,,,-99.99,VWS V12.07,2013-08-11 02:15:00,
2013-08-10 21:20:00,55.9,48.5,29.72,SSW,202,0.0,0.0,76,0.00,,,-99.99,VWS V12.07,2013-08-11 02:20:00,
2013-08-10 21:25:00,55.5,48.1,29.72,SSW,202,0.0,0.0,76,0.00,,,-99.99,VWS V12.07,2013-08-11 02:25:00,
2013-08-10 21:30:00,55.4,48.3,29.72,SSW,202,0.0,0.0,77,0.00,,,-99.99,VWS V12.07,2013-08-11 02:30:00,
2013-08-10 21:35:00,55.2,48.1,29.72,SSW,202,0.0,0.0,77,0.00,,,-99.99,VWS V12.07,2013-08-11 02:35:00,
2013-08-10 21:40:00,55.0,47.9,29.72,SSW,202,0.0,0.0,77,0.00,,,-99.99,VWS V12.07,2013-08-11 02:40:00,
2013-08-10 21:45:00,54.6,47.5,29.72,SSW,202,0.0,0.0,77,0.00,,,-99.99,VWS V12.07,2013-08-11 02:45:00,
2013-08-10 21:50:00,54.5,47.5,29.72,SSW,202,0.0,0.0,77,0.00,,,-99.99,VWS V12.07,2013-08-11 02:50:00,
2013-08-10 21:55:00,54.3,47.6,29.72,SSW,202,0.0,0.0,78,0.00,,,-99.99,VWS V12.07,2013-08-11 02:55:00,
2013-08-10 22:05:00,53.9,47.2,29.71,SSW,202,0.0,0.0,78,0.00,,,-99.99,VWS V12.07,2013-08-11 03:05:00,
2013-08-10 22:15:00,53.6,46.9,29.71,SSW,202,0.0,0.0,78,0.00,,,-99.99,VWS V12.07,2013-08-11 03:15:00,
2013-08-10 22:25:00,53.2,46.9,29.72,SSW,202,0.0,0.0,79,0.00,,,-99.99,VWS V12.07,2013-08-11 03:25:00,
2013-08-10 22:35:00,52.8,46.8,29.71,SSW,202,0.0,0.0,80,0.00,,,-99.99,VWS V12.07,2013-08-11 03:35:00,
2013-08-10 22:40:00,52.7,46.7,29.72,SSW,202,0.0,0.0,80,0.00,,,-99.99,VWS V12.07,2013-08-11 03:40:00,
2013-08-10 22:45:00,52.5,46.5,29.72,SSW,202,0.0,0.0,80,0.00,,,-99.99,VWS V12.07,2013-08-11 03:45:00,
2013-08-10 22:50:00,52.3,46.3,29.72,SSW,202,0.0,0.0,80,0.00,,,-99.99,VWS V12.07,2013-08-11 03:50:00,
2013-08-10 22:55:00,52.3,46.3,29.72,SSW,202,0.0,0.0,80,0.00,,,-99.99,VWS V12.07,2013-08-11 03:55:00,
2013-08-10 23:00:00,52.1,46.1,29.72,SSW,202,0.0,0.0,80,0.00,,,-99.99,VWS V12.07,2013-08-11 04:00:00,
2013-08-10 23:05:00,51.9,45.9,29.72,SSW,202,0.0,0.0,80,0.00,,,-99.99,VWS V12.07,2013-08-11 04:05:00,
2013-08-10 23:10:00,51.8,45.8,29.72,SSW,202,0.0,0.0,80,0.00,,,-99.99,VWS V12.07,2013-08-11 04:10:00,
2013-08-10 23:15:00,51.6,46.0,29.72,SSW,202,0.0,0.0,81,0.00,,,-99.99,VWS V12.07,2013-08-11 04:15:00,
2013-08-10 23:20:00,51.6,46.0,29.72,SSW,202,0.0,0.0,81,0.00,,,-99.99,VWS V12.07,2013-08-11 04:20:00,
2013-08-10 23:25:00,51.6,46.0,29.72,SSW,202,0.0,0.0,81,0.00,,,-99.99,VWS V12.07,2013-08-11 04:25:00,
2013-08-10 23:30:00,51.4,45.8,29.72,SSW,202,0.0,0.0,81,0.00,,,-99.99,VWS V12.07,2013-08-11 04:30:00,
2013-08-10 23:35:00,51.2,45.6,29.72,SSW,202,0.0,0.0,81,0.00,,,-99.99,VWS V12.07,2013-08-11 04:35:00,
2013-08-10 23:40:00,51.0,45.4,29.72,SSW,202,0.0,0.0,81,0.00,,,-99.99,VWS V12.07,2013-08-11 04:40:00,
2013-08-10 23:50:00,50.9,45.6,29.71,SSW,202,0.0,0.0,82,0.00,,,-99.99,VWS V12.07,2013-08-11 04:50:00,
2013-08-10 23:55:00,50.7,45.4,29.72,SSW,202,0.0,0.0,82,0.00,,,-99.99,VWS V12.07,2013-08-11 04:55:00,